K0V4

Brookneal Airport

Brookneal, Virginia, USA
METAR K0V4 181335Z AUTO 35004KT 10SM CLR 05/M03 A3013 RMK AO1 T00451031
Observed Flight Rules
Dec-18 @ 13:35 UTC (12 minutes ago) Visual Flight Rules
Wind Visibility Clouds
350° at 4 knots 10 miles
  • Clear skies
Temperatures Readings
Current 5°C / 41°F
Dewpoint -3°C / 27°F
Humidity 57%
Altimeter 30.13" Hg
Pressure 1020 hPa
Elevation 182
METAR K0V4 181335Z AUTO 35004KT 10SM CLR 05/M03 A3013 RMK AO1 T00451031
Observed Flight Rules
Dec-18 @ 13:35 UTC
(12 minutes ago)
VFR
Wind Visibility
350° at 4 knots 10 miles
Clouds
  • Clear skies
Temperature Dewpoint
5°C / 41°F -3°C / 27°F
Humidity Altimeter Pressure
57% 30.13" Hg 1020 hPa